createdAt,value
2022-09-03T00:00:18.955Z,99739.22
2022-09-03T00:04:29.267Z,99735.84
2022-09-03T00:08:40.815Z,99727.91
2022-09-03T00:12:47.763Z,99725.38
2022-09-03T00:16:54.205Z,99729.88
2022-09-03T00:21:08.272Z,99728.97
2022-09-03T00:25:18.548Z,99736.94
2022-09-03T00:29:26.662Z,99737.88
2022-09-03T00:33:33.570Z,99737.03
2022-09-03T00:37:38.133Z,99738.03
2022-09-03T00:41:58.211Z,99737.22
2022-09-03T00:46:08.046Z,99726.69
2022-09-03T00:50:23.192Z,99740.00
2022-09-03T00:54:35.041Z,99739.19
2022-09-03T00:58:56.353Z,99742.75
2022-09-03T01:03:08.674Z,99738.38
2022-09-03T01:07:24.636Z,99741.06
2022-09-03T01:11:33.750Z,99749.13
2022-09-03T01:15:51.018Z,99747.44
2022-09-03T01:20:09.205Z,99741.31
2022-09-03T01:24:37.030Z,99749.34
2022-09-03T01:28:54.842Z,99747.66
2022-09-03T01:33:04.895Z,99753.03
2022-09-03T01:37:18.676Z,99754.03
2022-09-03T01:41:50.188Z,99755.81
2022-09-03T01:46:00.532Z,99754.16
2022-09-03T01:50:09.618Z,99742.78
2022-09-03T01:54:37.689Z,99739.50
2022-09-03T01:58:45.681Z,99739.69
2022-09-03T02:02:52.819Z,99750.44
2022-09-03T02:06:58.861Z,99753.09
2022-09-03T02:11:03.400Z,99747.78
2022-09-03T02:15:12.162Z,99747.00
2022-09-03T02:19:19.132Z,99748.84
2022-09-03T02:23:24.619Z,99755.06
2022-09-03T02:27:32.103Z,99748.06
2022-09-03T02:31:35.144Z,99750.88
2022-09-03T02:35:41.294Z,99737.72
2022-09-03T02:39:44.588Z,99736.06
2022-09-03T02:43:51.538Z,99735.25
2022-09-03T02:47:58.241Z,99751.19
2022-09-03T02:52:06.540Z,99756.56
2022-09-03T02:56:09.762Z,99751.31
2022-09-03T03:00:14.187Z,99753.97
2022-09-03T03:04:17.250Z,99740.78
2022-09-03T03:08:25.214Z,99751.44
2022-09-03T03:12:29.360Z,99747.06
2022-09-03T03:16:32.569Z,99745.38
2022-09-03T03:20:35.706Z,99746.31
2022-09-03T03:24:40.148Z,99747.25
2022-09-03T03:28:43.437Z,99751.66
2022-09-03T03:32:47.063Z,99746.34
2022-09-03T03:36:50.335Z,99741.94
2022-09-03T03:40:55.100Z,99734.91
2022-09-03T03:44:58.368Z,99735.78
2022-09-03T03:49:01.931Z,99745.53
2022-09-03T03:53:05.007Z,99750.00
2022-09-03T03:57:09.471Z,99746.50
2022-09-03T04:01:14.293Z,99754.50
2022-09-03T04:05:17.589Z,99756.31
2022-09-03T04:09:26.355Z,99765.19
2022-09-03T04:13:32.285Z,99766.94
2022-09-03T04:17:35.580Z,99766.97
2022-09-03T04:21:39.102Z,99762.59
2022-09-03T04:25:42.339Z,99780.25
2022-09-03T04:29:47.048Z,99769.72
2022-09-03T04:33:51.286Z,99771.50
2022-09-03T04:37:55.339Z,99762.72
2022-09-03T04:42:00.058Z,99770.66
2022-09-03T04:46:07.247Z,99777.72
2022-09-03T04:50:12.786Z,99773.31
2022-09-03T04:54:15.850Z,99779.53
2022-09-03T04:58:19.081Z,99780.41
2022-09-03T05:02:23.649Z,99788.34
2022-09-03T05:06:27.427Z,99791.94
2022-09-03T05:10:30.784Z,99780.47
2022-09-03T05:14:33.999Z,99774.28
2022-09-03T05:18:38.896Z,99782.22
2022-09-03T05:22:42.181Z,99782.19
2022-09-03T05:26:45.413Z,99781.28
2022-09-03T05:30:48.600Z,99776.00
2022-09-03T05:34:53.546Z,99778.63
2022-09-03T05:38:58.404Z,99788.31
2022-09-03T05:43:05.333Z,99777.66
2022-09-03T05:47:11.612Z,99777.63
2022-09-03T05:51:18.075Z,99781.09
2022-09-03T05:55:21.440Z,99774.84
2022-09-03T05:59:24.482Z,99778.25
2022-09-03T06:03:28.309Z,99781.72
2022-09-03T06:07:33.200Z,99767.53
2022-09-03T06:11:37.579Z,99776.28
2022-09-03T06:15:41.735Z,99777.94
2022-09-03T06:19:45.001Z,99776.00
2022-09-03T06:23:52.922Z,99774.91
2022-09-03T06:27:56.603Z,99764.97
2022-09-03T06:32:03.545Z,99758.56
2022-09-03T06:36:09.113Z,99766.28
2022-09-03T06:40:14.209Z,99769.63
2022-09-03T06:44:17.483Z,99772.06
2022-09-03T06:48:20.588Z,99762.22
2022-09-03T06:52:25.687Z,99773.47
2022-09-03T06:56:33.044Z,99765.22
2022-09-03T07:00:38.212Z,99762.28
2022-09-03T07:04:41.621Z,99766.38
2022-09-03T07:08:47.922Z,99762.41
2022-09-03T07:12:52.503Z,99765.50
2022-09-03T07:16:55.520Z,99769.31
2022-09-03T07:21:02.232Z,99755.41
2022-09-03T07:25:06.152Z,99767.22
2022-09-03T07:29:11.664Z,99751.47
2022-09-03T07:33:14.894Z,99755.22
2022-09-03T07:37:18.773Z,99765.19
2022-09-03T07:41:28.397Z,99760.03
2022-09-03T07:45:33.982Z,99755.91
2022-09-03T07:49:37.126Z,99760.44
2022-09-03T07:53:40.439Z,99752.50
2022-09-03T07:57:43.517Z,99752.47
2022-09-03T08:01:48.007Z,99747.41
2022-09-03T08:05:51.099Z,99753.09
2022-09-03T08:09:54.299Z,99745.31
2022-09-03T08:14:01.759Z,99751.66
2022-09-03T08:18:06.323Z,99753.69
2022-09-03T08:22:10.720Z,99736.06
2022-09-03T08:26:15.068Z,99738.16
2022-09-03T08:30:18.328Z,99747.13
2022-09-03T08:34:24.031Z,99741.28
2022-09-03T08:38:27.069Z,99740.41
2022-09-03T08:42:44.428Z,99736.00
2022-09-03T08:46:52.871Z,99733.34
2022-09-03T08:51:00.834Z,99725.38
2022-09-03T08:55:17.506Z,99721.28
2022-09-03T08:59:22.167Z,99731.63
2022-09-03T09:03:42.537Z,99724.78
2022-09-03T09:07:53.522Z,99731.59
2022-09-03T09:12:08.966Z,99726.47
2022-09-03T09:16:20.552Z,99731.81
2022-09-03T09:20:34.883Z,99730.56
2022-09-03T09:24:43.596Z,99721.69
2022-09-03T09:28:49.445Z,99735.88
2022-09-03T09:32:56.203Z,99720.34
2022-09-03T09:37:01.693Z,99715.25
2022-09-03T09:41:15.462Z,99721.56
2022-09-03T09:45:19.764Z,99716.19
2022-09-03T09:49:33.075Z,99723.13
2022-09-03T09:53:36.589Z,99723.63
2022-09-03T09:57:41.375Z,99707.00
2022-09-03T10:01:46.563Z,99702.63
2022-09-03T10:06:23.838Z,99707.13
2022-09-03T10:10:29.130Z,99700.66
2022-09-03T10:14:38.872Z,99701.59
2022-09-03T10:18:45.086Z,99701.66
2022-09-03T10:22:56.871Z,99702.03
2022-09-03T10:27:01.769Z,99691.84
2022-09-03T10:31:35.055Z,99702.03
2022-09-03T10:35:45.825Z,99696.13
2022-09-03T10:39:59.885Z,99696.81
2022-09-03T10:44:35.736Z,99689.69
2022-09-03T10:48:54.100Z,99683.41
2022-09-03T10:53:12.253Z,99678.75
2022-09-03T10:57:26.577Z,99670.91
2022-09-03T11:01:39.640Z,99675.72
2022-09-03T11:06:03.051Z,99678.91
2022-09-03T11:10:15.013Z,99680.13
2022-09-03T11:14:26.956Z,99675.50
2022-09-03T11:18:35.646Z,99675.72
2022-09-03T11:22:43.298Z,99672.94
2022-09-03T11:26:50.491Z,99665.59
2022-09-03T11:31:13.736Z,99667.81
2022-09-03T11:35:19.170Z,99660.81
2022-09-03T11:39:34.564Z,99672.63
2022-09-03T11:43:37.885Z,99659.50
2022-09-03T11:47:43.552Z,99662.25
2022-09-03T11:51:59.821Z,99641.81
2022-09-03T11:56:19.247Z,99644.09
2022-09-03T12:00:24.998Z,99652.50
2022-09-03T12:04:37.024Z,99643.69
2022-09-03T12:08:58.968Z,99644.75
2022-09-03T12:13:20.240Z,99645.63
2022-09-03T12:17:31.356Z,99649.09
2022-09-03T12:21:40.120Z,99644.19
2022-09-03T12:25:47.529Z,99643.13
2022-09-03T12:30:00.119Z,99642.44
2022-09-03T12:34:09.336Z,99636.19
2022-09-03T12:38:18.486Z,99639.00
2022-09-03T12:42:25.737Z,99638.59
2022-09-03T12:46:34.100Z,99637.13
2022-09-03T12:50:42.409Z,99635.66
2022-09-03T12:54:57.573Z,99637.66
2022-09-03T12:59:05.877Z,99631.81
2022-09-03T13:03:15.730Z,99626.88
2022-09-03T13:07:26.714Z,99628.09
2022-09-03T13:11:33.900Z,99632.34
2022-09-03T13:15:37.232Z,99619.53
2022-09-03T13:19:59.235Z,99618.69
2022-09-03T13:24:35.364Z,99606.16
2022-09-03T13:28:52.286Z,99611.94
2022-09-03T13:33:01.040Z,99612.34
2022-09-03T13:37:19.647Z,99604.25
2022-09-03T13:41:36.704Z,99600.88
2022-09-03T13:45:45.868Z,99595.38
2022-09-03T13:50:11.946Z,99590.31
2022-09-03T13:54:42.473Z,99586.81
2022-09-03T13:58:49.319Z,99589.66
2022-09-03T14:02:57.080Z,99584.03
2022-09-03T14:07:07.723Z,99585.78
2022-09-03T14:11:26.065Z,99569.09
2022-09-03T14:15:32.831Z,99580.00
2022-09-03T14:19:44.721Z,99574.03
2022-09-03T14:23:53.265Z,99569.72
2022-09-03T14:28:16.216Z,99579.44
2022-09-03T14:32:30.512Z,99569.75
2022-09-03T14:36:41.876Z,99568.72
2022-09-03T14:40:47.659Z,99572.66
2022-09-03T14:45:14.308Z,99576.66
2022-09-03T14:49:28.031Z,99572.34
2022-09-03T14:53:58.517Z,99570.69
2022-09-03T14:58:19.954Z,99558.28
2022-09-03T15:02:49.036Z,99577.28
2022-09-03T15:07:13.349Z,99570.56
2022-09-03T15:11:19.767Z,99575.44
2022-09-03T15:15:30.571Z,99570.25
2022-09-03T15:20:04.310Z,99570.25
2022-09-03T15:24:15.191Z,99567.16
2022-09-03T15:28:29.007Z,99563.91
2022-09-03T15:32:48.524Z,99563.34
2022-09-03T15:36:55.516Z,99564.31
2022-09-03T15:41:04.282Z,99565.28
2022-09-03T15:45:22.702Z,99571.09
2022-09-03T15:49:37.846Z,99567.25
2022-09-03T15:53:51.433Z,99556.16
2022-09-03T15:58:09.380Z,99566.28
2022-09-03T16:02:18.366Z,99558.19
2022-09-03T16:06:38.134Z,99565.53
2022-09-03T16:10:55.575Z,99568.41
2022-09-03T16:15:05.276Z,99566.78
2022-09-03T16:19:18.105Z,99579.66
2022-09-03T16:23:26.558Z,99585.31
2022-09-03T16:27:37.672Z,99580.53
2022-09-03T16:31:53.366Z,99588.97
2022-09-03T16:36:05.794Z,99592.34
2022-09-03T16:40:16.245Z,99581.81
2022-09-03T16:44:29.732Z,99594.72
2022-09-03T16:48:40.291Z,99591.25
2022-09-03T16:52:57.212Z,99601.34
2022-09-03T16:57:11.286Z,99586.59
2022-09-03T17:01:34.137Z,99586.97
2022-09-03T17:06:09.139Z,99583.25
2022-09-03T17:10:22.816Z,99589.25
2022-09-03T17:14:57.172Z,99585.50
2022-09-03T17:19:11.439Z,99603.72
2022-09-03T17:23:33.226Z,99604.06
2022-09-03T17:27:55.409Z,99613.63
2022-09-03T17:32:22.552Z,99599.84
2022-09-03T17:36:29.887Z,99614.69
2022-09-03T17:40:44.413Z,99603.22
2022-09-03T17:44:59.724Z,99606.16
2022-09-03T17:49:04.254Z,99603.72
2022-09-03T17:53:18.383Z,99607.63
2022-09-03T17:57:26.786Z,99603.53
2022-09-03T18:01:34.015Z,99619.06
2022-09-03T18:05:47.250Z,99625.53
2022-09-03T18:10:00.384Z,99626.59
2022-09-03T18:14:16.656Z,99624.13
2022-09-03T18:18:27.222Z,99624.50
2022-09-03T18:22:55.722Z,99635.56
2022-09-03T18:27:20.550Z,99643.78
2022-09-03T18:31:41.332Z,99633.44
2022-09-03T18:36:03.360Z,99643.66
2022-09-03T18:40:26.709Z,99647.50
2022-09-03T18:45:18.719Z,99646.09
2022-09-03T18:49:46.079Z,99649.09
2022-09-03T18:54:22.576Z,99658.34
2022-09-03T18:58:54.739Z,99655.81
2022-09-03T19:03:54.882Z,99663.25
2022-09-03T19:08:25.072Z,99659.06
2022-09-03T19:13:02.510Z,99654.88
2022-09-03T19:17:30.773Z,99653.28
2022-09-03T19:21:59.860Z,99657.94
2022-09-03T19:26:29.240Z,99656.44
2022-09-03T19:31:06.220Z,99648.53
2022-09-03T19:35:36.340Z,99654.22
2022-09-03T19:40:13.390Z,99661.38
2022-09-03T19:44:53.009Z,99673.38
2022-09-03T19:49:22.129Z,99679.78
2022-09-03T19:53:43.295Z,99670.19
2022-09-03T19:58:32.531Z,99678.06
2022-09-03T20:02:54.690Z,99683.44
2022-09-03T20:07:16.741Z,99690.69
2022-09-03T20:11:25.487Z,99688.16
2022-09-03T20:15:44.803Z,99684.75
2022-09-03T20:20:00.772Z,99692.81
2022-09-03T20:24:21.101Z,99697.53
2022-09-03T20:28:40.462Z,99698.63
2022-09-03T20:33:11.059Z,99703.19
2022-09-03T20:37:27.531Z,99707.91
2022-09-03T20:41:41.640Z,99721.53
2022-09-03T20:46:02.061Z,99706.47
2022-09-03T20:50:20.156Z,99719.06
2022-09-03T20:54:31.866Z,99721.13
2022-09-03T20:58:46.039Z,99721.25
2022-09-03T21:03:18.916Z,99712.41
2022-09-03T21:07:37.098Z,99719.81
2022-09-03T21:11:49.769Z,99722.56
2022-09-03T21:16:01.817Z,99725.31
2022-09-03T21:20:18.461Z,99720.94
2022-09-03T21:24:31.448Z,99720.22
2022-09-03T21:28:40.349Z,99728.47
2022-09-03T21:32:49.408Z,99722.38
2022-09-03T21:36:52.960Z,99731.50
2022-09-03T21:41:03.895Z,99733.47
2022-09-03T21:45:15.209Z,99737.25
2022-09-03T21:49:24.169Z,99734.69
2022-09-03T21:53:33.210Z,99749.19
2022-09-03T21:57:47.628Z,99753.75
2022-09-03T22:02:02.296Z,99756.34
2022-09-03T22:06:13.623Z,99764.31
2022-09-03T22:10:23.041Z,99774.91
2022-09-03T22:14:34.404Z,99784.75
2022-09-03T22:18:37.437Z,99788.31
2022-09-03T22:22:44.985Z,99797.28
2022-09-03T22:26:54.261Z,99789.22
2022-09-03T22:31:05.059Z,99799.94
2022-09-03T22:35:26.015Z,99791.00
2022-09-03T22:39:36.630Z,99799.03
2022-09-03T22:43:43.079Z,99799.94
2022-09-03T22:48:00.025Z,99797.38
2022-09-03T22:52:28.932Z,99804.69
2022-09-03T22:56:37.253Z,99805.59
2022-09-03T23:00:46.546Z,99803.84
2022-09-03T23:05:00.521Z,99814.63
2022-09-03T23:09:07.138Z,99808.53
2022-09-03T23:13:16.255Z,99813.09
2022-09-03T23:21:40.808Z,99812.34
2022-09-03T23:25:50.402Z,99823.13
2022-09-03T23:29:57.148Z,99825.94
2022-09-03T23:34:00.452Z,99829.81
2022-09-03T23:38:17.352Z,99832.75
2022-09-03T23:42:36.247Z,99823.09
2022-09-03T23:46:47.498Z,99831.34
2022-09-03T23:51:04.013Z,99819.03
2022-09-03T23:55:20.038Z,99823.97
2022-09-03T23:59:30.464Z,99827.91
